createdAt,value
2023-04-08T00:01:24.245Z,18.55
2023-04-08T00:03:56.400Z,22.92
2023-04-08T00:06:29.219Z,13.40
2023-04-08T00:08:56.293Z,18.67
2023-04-08T00:11:24.259Z,15.82
2023-04-08T00:13:52.321Z,15.35
2023-04-08T00:16:20.460Z,15.23
2023-04-08T00:18:49.331Z,15.73
2023-04-08T00:21:20.766Z,15.18
2023-04-08T00:23:48.236Z,14.95
2023-04-08T00:26:16.219Z,18.35
2023-04-08T00:28:50.192Z,18.05
2023-04-08T00:34:14.319Z,16.52
2023-04-08T00:36:42.231Z,15.93
2023-04-08T00:39:10.284Z,14.80
2023-04-08T00:41:43.251Z,16.17
2023-04-08T00:44:10.354Z,14.77
2023-04-08T00:46:39.696Z,13.48
2023-04-08T00:49:12.431Z,15.05
2023-04-08T00:51:40.938Z,13.57
2023-04-08T00:54:14.216Z,14.18
2023-04-08T00:56:48.757Z,14.02
2023-04-08T00:59:18.170Z,15.23
2023-04-08T01:05:26.278Z,15.90
2023-04-08T01:07:59.435Z,14.85
2023-04-08T01:10:33.460Z,15.95
2023-04-08T01:13:06.368Z,15.25
2023-04-08T01:15:41.252Z,19.83
2023-04-08T01:21:08.859Z,15.32
2023-04-08T01:24:02.500Z,16.13
2023-04-08T01:26:31.281Z,15.40
2023-04-08T01:29:01.674Z,13.85
2023-04-08T01:31:41.969Z,14.70
2023-04-08T01:34:11.884Z,14.02
2023-04-08T01:39:57.256Z,18.33
2023-04-08T01:42:50.700Z,14.75
2023-04-08T01:45:23.922Z,14.27
2023-04-08T01:47:53.421Z,14.20
2023-04-08T01:50:23.618Z,11.77
2023-04-08T01:52:53.612Z,11.98
2023-04-08T01:55:22.919Z,12.50
2023-04-08T01:57:59.821Z,13.00
2023-04-08T02:00:32.021Z,13.77
2023-04-08T02:03:01.157Z,13.13
2023-04-08T02:05:28.314Z,18.30
2023-04-08T02:07:56.266Z,12.50
2023-04-08T02:10:29.270Z,15.88
2023-04-08T02:12:56.879Z,11.65
2023-04-08T02:15:27.584Z,13.65
2023-04-08T02:18:03.441Z,12.38
2023-04-08T02:20:47.744Z,11.25
2023-04-08T02:23:20.470Z,13.60
2023-04-08T02:25:56.925Z,11.75
2023-04-08T02:28:31.386Z,11.27
2023-04-08T02:31:05.767Z,12.32
2023-04-08T02:33:37.046Z,10.80
2023-04-08T02:39:00.547Z,13.15
2023-04-08T02:41:30.095Z,12.70
2023-04-08T02:43:58.439Z,10.93
2023-04-08T02:47:16.737Z,14.05
2023-04-08T02:49:44.398Z,13.00
2023-04-08T02:52:17.303Z,13.00
2023-04-08T02:54:44.429Z,13.68
2023-04-08T03:00:28.323Z,13.95
2023-04-08T03:02:56.545Z,18.10
2023-04-08T03:05:24.290Z,19.10
2023-04-08T03:07:52.253Z,17.88
2023-04-08T03:10:20.501Z,17.08
2023-04-08T03:12:48.307Z,18.17
2023-04-08T03:15:40.382Z,14.45
2023-04-08T03:18:08.291Z,19.02
2023-04-08T03:20:36.370Z,20.38
2023-04-08T03:23:04.298Z,15.82
2023-04-08T03:25:32.307Z,17.98
2023-04-08T03:28:04.285Z,25.15
2023-04-08T03:30:32.310Z,22.23
2023-04-08T03:33:07.353Z,25.40
2023-04-08T03:35:34.392Z,23.58
2023-04-08T03:38:02.258Z,25.90
2023-04-08T03:40:35.293Z,22.77
2023-04-08T03:43:02.281Z,26.40
2023-04-08T03:45:30.240Z,28.63
2023-04-08T03:50:50.531Z,28.80
2023-04-08T03:53:18.242Z,25.10
2023-04-08T03:55:53.605Z,26.55
2023-04-08T03:58:20.346Z,22.45
2023-04-08T04:00:48.342Z,21.60
2023-04-08T04:03:21.741Z,22.25
2023-04-08T04:05:55.607Z,23.65
2023-04-08T04:08:22.249Z,28.58
2023-04-08T04:10:56.517Z,25.92
2023-04-08T04:13:29.344Z,29.00
2023-04-08T04:16:02.435Z,27.73
2023-04-08T04:18:54.550Z,22.50
2023-04-08T04:21:22.240Z,20.35
2023-04-08T04:24:41.195Z,21.23
2023-04-08T04:27:35.209Z,20.35
2023-04-08T04:32:54.311Z,18.63
2023-04-08T04:35:22.344Z,23.23
2023-04-08T04:37:51.818Z,22.42
2023-04-08T04:40:49.367Z,23.67
2023-04-08T04:43:16.456Z,20.05
2023-04-08T04:45:53.374Z,20.92
2023-04-08T04:48:20.334Z,23.05
2023-04-08T04:50:58.446Z,23.85
2023-04-08T04:53:26.264Z,20.75
2023-04-08T04:55:54.549Z,23.63
2023-04-08T04:58:22.257Z,18.85
2023-04-08T05:03:42.332Z,26.70
2023-04-08T05:06:14.258Z,18.33
2023-04-08T05:08:42.361Z,28.48
2023-04-08T05:11:11.106Z,18.63
2023-04-08T05:13:38.237Z,17.67
2023-04-08T05:19:02.352Z,21.25
2023-04-08T05:21:54.257Z,20.95
2023-04-08T05:24:22.535Z,18.38
2023-04-08T05:26:57.739Z,16.85
2023-04-08T05:29:26.354Z,18.92
2023-04-08T05:31:54.445Z,25.38
2023-04-08T05:34:23.301Z,21.25
2023-04-08T05:36:54.090Z,21.33
2023-04-08T05:39:22.252Z,21.58
2023-04-08T05:41:50.447Z,20.05
2023-04-08T05:44:22.299Z,19.33
2023-04-08T05:46:50.353Z,21.30
2023-04-08T05:49:23.644Z,21.38
2023-04-08T05:51:55.373Z,23.13
2023-04-08T05:54:22.313Z,18.67
2023-04-08T05:59:52.421Z,22.90
2023-04-08T06:02:20.388Z,24.75
2023-04-08T06:04:48.287Z,26.70
2023-04-08T06:07:16.229Z,25.63
2023-04-08T06:09:45.334Z,24.35
2023-04-08T06:12:12.388Z,22.45
2023-04-08T06:15:10.048Z,25.05
2023-04-08T06:17:39.228Z,19.58
2023-04-08T06:20:12.325Z,27.23
2023-04-08T06:22:40.442Z,29.85
2023-04-08T06:28:00.215Z,24.80
2023-04-08T06:30:28.262Z,26.63
2023-04-08T06:33:00.271Z,24.25
2023-04-08T06:35:28.485Z,18.95
2023-04-08T06:38:21.254Z,22.95
2023-04-08T06:40:48.243Z,22.40
2023-04-08T06:43:20.478Z,27.20
2023-04-08T06:45:48.262Z,21.08
2023-04-08T06:51:41.816Z,21.90
2023-04-08T06:54:10.287Z,18.73
2023-04-08T06:56:38.262Z,24.38
2023-04-08T07:01:58.460Z,22.48
2023-04-08T07:04:31.860Z,19.65
2023-04-08T07:07:26.198Z,21.10
2023-04-08T07:09:54.276Z,17.73
2023-04-08T07:12:27.440Z,20.63
2023-04-08T07:14:54.209Z,19.35
2023-04-08T07:17:27.285Z,19.67
2023-04-08T07:19:54.228Z,26.75
2023-04-08T07:22:22.551Z,23.13
2023-04-08T07:28:08.240Z,18.60
2023-04-08T07:31:28.625Z,26.83
2023-04-08T07:34:22.323Z,22.73
2023-04-08T07:36:54.276Z,19.60
2023-04-08T07:39:22.281Z,23.65
2023-04-08T07:41:50.374Z,23.40
2023-04-08T07:44:23.371Z,17.25
2023-04-08T07:46:51.711Z,24.02
2023-04-08T07:52:12.272Z,16.88
2023-04-08T07:54:40.426Z,22.92
2023-04-08T07:57:08.214Z,22.92
2023-04-08T07:59:41.252Z,18.30
2023-04-08T08:02:08.309Z,22.23
2023-04-08T08:04:36.401Z,19.00
2023-04-08T08:07:04.433Z,20.95
2023-04-08T08:09:36.277Z,20.58
2023-04-08T08:12:04.491Z,19.15
2023-04-08T08:14:37.284Z,18.38
2023-04-08T08:17:04.758Z,17.63
2023-04-08T08:19:32.422Z,18.95
2023-04-08T08:22:00.427Z,13.88
2023-04-08T08:24:28.243Z,16.88
2023-04-08T08:26:56.599Z,16.35
2023-04-08T08:35:08.862Z,18.17
2023-04-08T08:37:36.234Z,20.73
2023-04-08T08:40:04.661Z,17.83
2023-04-08T08:42:34.250Z,16.80
2023-04-08T08:45:03.579Z,15.25
2023-04-08T08:48:01.928Z,20.05
2023-04-08T08:50:30.363Z,20.80
2023-04-08T08:52:58.394Z,19.02
2023-04-08T08:55:44.737Z,15.23
2023-04-08T08:58:39.168Z,21.13
2023-04-08T09:01:38.230Z,16.90
2023-04-08T09:04:14.348Z,16.40
2023-04-08T09:06:43.804Z,15.35
2023-04-08T09:09:16.874Z,15.05
2023-04-08T09:11:46.224Z,16.85
2023-04-08T09:14:40.715Z,19.10
2023-04-08T09:17:08.370Z,16.75
2023-04-08T09:19:40.565Z,19.08
2023-04-08T09:22:15.491Z,18.17
2023-04-08T09:24:47.792Z,19.65
2023-04-08T09:27:16.466Z,21.67
2023-04-08T09:29:48.610Z,17.55
2023-04-08T09:32:16.254Z,20.13
2023-04-08T09:34:48.260Z,18.45
2023-04-08T09:40:08.859Z,18.48
2023-04-08T09:42:46.694Z,17.73
2023-04-08T09:45:21.156Z,15.00
2023-04-08T09:47:54.883Z,22.75
2023-04-08T09:50:27.140Z,17.52
2023-04-08T09:53:22.780Z,19.20
2023-04-08T09:55:53.317Z,17.83
2023-04-08T09:58:52.654Z,18.45
2023-04-08T10:01:53.760Z,22.02
2023-04-08T10:04:24.596Z,18.83
2023-04-08T10:07:19.278Z,20.60
2023-04-08T10:09:46.365Z,19.98
2023-04-08T10:12:14.602Z,18.52
2023-04-08T10:14:42.251Z,18.13
2023-04-08T10:17:27.301Z,16.40
2023-04-08T10:19:54.699Z,16.27
2023-04-08T10:22:46.490Z,22.05
2023-04-08T10:25:42.069Z,17.45
2023-04-08T10:28:17.915Z,18.67
2023-04-08T10:30:50.849Z,19.65
2023-04-08T10:33:44.554Z,20.00
2023-04-08T10:39:11.291Z,20.92
2023-04-08T10:41:44.633Z,21.60
2023-04-08T10:44:19.949Z,23.65
2023-04-08T10:47:12.764Z,23.30
2023-04-08T10:49:47.623Z,25.65
2023-04-08T10:52:15.690Z,26.65
2023-04-08T10:54:48.342Z,28.02
2023-04-08T10:57:27.000Z,23.67
2023-04-08T10:59:59.239Z,25.35
2023-04-08T11:02:33.288Z,30.98
2023-04-08T11:05:00.576Z,24.05
2023-04-08T11:07:33.325Z,24.85
2023-04-08T11:10:03.833Z,21.15
2023-04-08T11:12:32.556Z,24.20
2023-04-08T11:15:26.449Z,19.38
2023-04-08T11:17:55.002Z,21.63
2023-04-08T11:20:22.556Z,21.48
2023-04-08T11:22:50.555Z,25.23
2023-04-08T11:25:18.525Z,20.42
2023-04-08T11:27:47.551Z,19.75
2023-04-08T11:30:14.482Z,20.40
2023-04-08T11:32:42.434Z,17.80
2023-04-08T11:35:10.861Z,18.98
2023-04-08T11:37:40.860Z,26.90
2023-04-08T11:40:12.566Z,21.90
2023-04-08T11:42:40.300Z,17.88
2023-04-08T11:45:16.643Z,23.00
2023-04-08T11:47:45.029Z,19.35
2023-04-08T11:50:12.396Z,17.63
2023-04-08T11:53:19.668Z,21.70
2023-04-08T11:55:48.996Z,23.27
2023-04-08T11:58:16.464Z,19.13
2023-04-08T12:00:45.568Z,18.02
2023-04-08T12:03:13.546Z,19.92
2023-04-08T12:05:48.354Z,19.10
2023-04-08T12:08:16.293Z,20.23
2023-04-08T12:10:49.273Z,17.65
2023-04-08T12:13:16.257Z,23.52
2023-04-08T12:15:45.136Z,22.65
2023-04-08T12:18:37.374Z,23.13
2023-04-08T12:26:50.372Z,21.25
2023-04-08T12:29:18.227Z,24.52
2023-04-08T12:31:46.625Z,19.13
2023-04-08T12:34:18.409Z,19.55
2023-04-08T12:36:51.367Z,18.70
2023-04-08T12:39:18.269Z,16.65
2023-04-08T12:44:38.247Z,19.80
2023-04-08T12:47:11.432Z,18.30
2023-04-08T12:49:49.578Z,18.58
2023-04-08T12:55:10.617Z,12.05
2023-04-08T12:57:38.266Z,24.50
2023-04-08T13:00:07.080Z,18.60
2023-04-08T13:02:34.306Z,18.55
2023-04-08T13:05:02.363Z,19.50
2023-04-08T13:07:35.344Z,20.73
2023-04-08T13:10:03.747Z,20.67
2023-04-08T13:12:40.595Z,17.33
2023-04-08T13:15:12.578Z,19.88
2023-04-08T13:17:40.601Z,16.80
2023-04-08T13:20:34.295Z,22.42
2023-04-08T13:23:02.367Z,22.42
2023-04-08T13:28:27.229Z,22.02
2023-04-08T13:31:00.347Z,20.88
2023-04-08T13:33:28.231Z,28.48
2023-04-08T13:36:00.364Z,19.05
2023-04-08T13:38:52.497Z,17.80
2023-04-08T13:41:25.264Z,16.10
2023-04-08T13:43:52.446Z,29.40
2023-04-08T13:46:20.397Z,22.02
2023-04-08T13:48:48.296Z,28.83
2023-04-08T13:51:16.259Z,22.45
2023-04-08T13:53:44.216Z,31.67
2023-04-08T13:56:12.241Z,35.00
2023-04-08T13:58:40.525Z,35.40
2023-04-08T14:01:08.299Z,25.52
2023-04-08T14:03:36.531Z,21.63
2023-04-08T14:06:04.452Z,26.88
2023-04-08T14:08:32.450Z,29.63
2023-04-08T14:11:04.360Z,26.77
2023-04-08T14:13:36.234Z,26.02
2023-04-08T14:16:04.498Z,28.42
2023-04-08T14:18:32.404Z,21.10
2023-04-08T14:23:52.603Z,26.40
2023-04-08T14:26:51.356Z,26.88
2023-04-08T14:29:18.272Z,27.23
2023-04-08T14:31:46.243Z,25.05
2023-04-08T14:34:14.253Z,21.77
2023-04-08T14:36:42.263Z,17.48
2023-04-08T14:39:11.859Z,20.67
2023-04-08T14:41:40.655Z,22.80
2023-04-08T14:44:08.292Z,20.17
2023-04-08T14:46:40.279Z,20.98
2023-04-08T14:49:08.254Z,25.20
2023-04-08T14:51:37.916Z,25.23
2023-04-08T14:54:06.279Z,27.00
2023-04-08T14:56:34.293Z,25.92
2023-04-08T14:59:02.287Z,26.77
2023-04-08T15:01:32.313Z,30.10
2023-04-08T15:04:04.414Z,26.88
2023-04-08T15:06:32.460Z,24.90
2023-04-08T15:09:00.231Z,24.08
2023-04-08T15:11:28.272Z,26.95
2023-04-08T15:13:56.247Z,27.27
2023-04-08T15:16:28.471Z,26.10
2023-04-08T15:19:04.658Z,23.23
2023-04-08T15:21:32.267Z,26.55
2023-04-08T15:24:05.374Z,28.58
2023-04-08T15:26:32.609Z,29.75
2023-04-08T15:29:26.314Z,29.55
2023-04-08T15:31:54.364Z,30.35
2023-04-08T15:34:22.287Z,32.20
2023-04-08T15:36:50.235Z,30.85
2023-04-08T15:39:18.365Z,30.67
2023-04-08T15:41:46.301Z,40.65
2023-04-08T15:44:14.342Z,30.65
2023-04-08T15:46:42.259Z,33.95
2023-04-08T15:49:10.461Z,36.17
2023-04-08T15:51:38.289Z,32.00
2023-04-08T15:54:06.351Z,32.63
2023-04-08T15:56:34.257Z,28.77
2023-04-08T15:59:02.322Z,26.48
2023-04-08T16:01:31.015Z,38.85
2023-04-08T16:04:00.827Z,36.00
2023-04-08T16:06:28.270Z,43.75
2023-04-08T16:11:48.827Z,30.63
2023-04-08T16:14:16.353Z,32.80
2023-04-08T16:17:09.093Z,29.25
2023-04-08T16:19:38.512Z,37.25
2023-04-08T16:22:06.402Z,31.58
2023-04-08T16:24:37.026Z,39.85
2023-04-08T16:27:04.621Z,38.58
2023-04-08T16:29:32.570Z,37.03
2023-04-08T16:32:01.602Z,36.35
2023-04-08T16:34:34.566Z,38.85
2023-04-08T16:37:02.377Z,45.03
2023-04-08T16:39:54.465Z,46.08
2023-04-08T16:42:26.556Z,39.90
2023-04-08T16:44:57.927Z,40.85
2023-04-08T16:47:29.077Z,53.78
2023-04-08T16:49:56.241Z,53.40
2023-04-08T16:52:24.341Z,52.38
2023-04-08T16:54:52.344Z,50.00
2023-04-08T16:57:20.324Z,44.70
2023-04-08T16:59:50.662Z,48.70
2023-04-08T17:02:23.554Z,43.35
2023-04-08T17:04:50.470Z,60.55
2023-04-08T17:12:42.376Z,41.65
2023-04-08T17:18:02.436Z,46.35
2023-04-08T17:20:54.246Z,48.00
2023-04-08T17:23:22.279Z,47.45
2023-04-08T17:26:15.634Z,50.13
2023-04-08T17:28:43.065Z,54.22
2023-04-08T17:31:11.047Z,49.55
2023-04-08T17:33:38.256Z,61.75
2023-04-08T17:36:07.102Z,48.90
2023-04-08T17:38:39.530Z,43.08
2023-04-08T17:41:08.021Z,45.10
2023-04-08T17:43:36.412Z,42.50
2023-04-08T17:49:20.239Z,58.30
2023-04-08T17:51:52.221Z,87.70
2023-04-08T17:54:24.951Z,70.03
2023-04-08T17:56:57.887Z,70.15
2023-04-08T17:59:26.270Z,55.85
2023-04-08T18:01:54.478Z,57.92
2023-04-08T18:04:22.638Z,62.88
2023-04-08T18:06:50.367Z,53.55
2023-04-08T18:09:18.229Z,49.08
2023-04-08T18:11:46.347Z,55.63
2023-04-08T18:14:14.259Z,44.70
2023-04-08T18:16:47.332Z,50.38
2023-04-08T18:19:14.270Z,55.72
2023-04-08T18:21:46.302Z,48.65
2023-04-08T18:24:14.257Z,58.28
2023-04-08T18:26:43.825Z,55.80
2023-04-08T18:29:12.403Z,69.85
2023-04-08T18:31:44.318Z,54.53
2023-04-08T18:34:12.214Z,48.65
2023-04-08T18:36:44.327Z,42.42
2023-04-08T18:39:12.254Z,52.75
2023-04-08T18:41:40.227Z,42.72
2023-04-08T18:47:09.562Z,40.70
2023-04-08T18:49:38.517Z,44.17
2023-04-08T18:52:06.764Z,46.03
2023-04-08T18:54:34.333Z,45.10
2023-04-08T18:57:06.368Z,51.05
2023-04-08T18:59:34.329Z,39.22
2023-04-08T19:02:31.813Z,44.47
2023-04-08T19:05:05.418Z,54.92
2023-04-08T19:07:32.505Z,48.88
2023-04-08T19:10:00.383Z,54.38
2023-04-08T19:12:28.254Z,47.88
2023-04-08T19:15:02.638Z,50.72
2023-04-08T19:17:30.803Z,51.40
2023-04-08T19:19:58.710Z,52.88
2023-04-08T19:22:28.732Z,57.92
2023-04-08T19:24:56.351Z,49.90
2023-04-08T19:27:24.213Z,52.15
2023-04-08T19:29:56.525Z,56.13
2023-04-08T19:32:24.388Z,54.30
2023-04-08T19:34:52.446Z,54.17
2023-04-08T19:37:20.317Z,48.15
2023-04-08T19:39:52.556Z,52.58
2023-04-08T19:42:20.327Z,58.33
2023-04-08T19:44:53.709Z,64.20
2023-04-08T19:47:22.593Z,54.47
2023-04-08T19:49:50.334Z,56.33
2023-04-08T19:52:18.329Z,58.88
2023-04-08T19:55:10.792Z,54.30
2023-04-08T19:57:44.940Z,56.75
2023-04-08T20:00:14.237Z,57.30
2023-04-08T20:02:42.351Z,54.55
2023-04-08T20:05:14.890Z,49.15
2023-04-08T20:07:42.940Z,56.80
2023-04-08T20:10:10.522Z,57.63
2023-04-08T20:12:38.749Z,48.83
2023-04-08T20:15:23.634Z,50.28
2023-04-08T20:17:53.144Z,55.95
2023-04-08T20:20:20.451Z,51.55
2023-04-08T20:22:48.228Z,55.85
2023-04-08T20:25:16.376Z,48.22
2023-04-08T20:27:44.274Z,54.47
2023-04-08T20:30:18.072Z,56.65
2023-04-08T20:32:46.269Z,60.67
2023-04-08T20:35:19.343Z,53.10
2023-04-08T20:37:51.308Z,50.05
2023-04-08T20:40:18.487Z,52.47
2023-04-08T20:43:16.948Z,59.22
2023-04-08T20:46:10.478Z,56.88
2023-04-08T20:48:38.325Z,59.85
2023-04-08T20:51:06.497Z,66.05
2023-04-08T20:53:37.017Z,62.97
2023-04-08T20:56:04.537Z,61.10
2023-04-08T21:01:24.333Z,68.75
2023-04-08T21:03:57.147Z,62.50
2023-04-08T21:06:24.370Z,70.72
2023-04-08T21:08:52.397Z,59.97
2023-04-08T21:11:24.360Z,64.07
2023-04-08T21:16:48.420Z,68.68
2023-04-08T21:19:16.255Z,73.13
2023-04-08T21:21:46.203Z,73.25
2023-04-08T21:24:14.308Z,80.28
2023-04-08T21:26:42.254Z,76.20
2023-04-08T21:29:11.417Z,75.45
2023-04-08T21:31:44.315Z,79.85
2023-04-08T21:34:13.299Z,77.63
2023-04-08T21:36:45.336Z,86.82
2023-04-08T21:39:12.341Z,85.93
2023-04-08T21:41:45.276Z,72.63
2023-04-08T21:44:12.310Z,78.95
2023-04-08T21:46:40.269Z,83.15
2023-04-08T21:49:11.126Z,78.68
2023-04-08T21:51:39.165Z,81.05
2023-04-08T21:57:54.232Z,88.85
2023-04-08T22:00:49.169Z,76.25
2023-04-08T22:03:43.359Z,75.00
2023-04-08T22:06:29.132Z,87.15
2023-04-08T22:09:29.254Z,82.72
2023-04-08T22:12:02.080Z,79.88
2023-04-08T22:14:54.236Z,82.95
2023-04-08T22:17:22.260Z,71.00
2023-04-08T22:19:54.238Z,69.38
2023-04-08T22:22:26.913Z,71.15
2023-04-08T22:27:46.234Z,63.75
2023-04-08T22:30:21.386Z,74.95
2023-04-08T22:32:48.320Z,70.70
2023-04-08T22:35:16.621Z,69.75
2023-04-08T22:37:44.247Z,72.70
2023-04-08T22:40:12.322Z,60.92
2023-04-08T22:42:40.363Z,75.50
2023-04-08T22:45:08.468Z,71.55
2023-04-08T22:47:37.386Z,63.20
2023-04-08T22:50:10.969Z,66.65
2023-04-08T22:52:38.336Z,64.55
2023-04-08T22:55:07.028Z,64.88
2023-04-08T22:58:00.320Z,59.55
2023-04-08T23:00:29.472Z,56.03
2023-04-08T23:02:57.893Z,59.55
2023-04-08T23:05:26.276Z,66.53
2023-04-08T23:07:54.241Z,62.40
2023-04-08T23:10:22.237Z,57.22
2023-04-08T23:12:50.680Z,61.90
2023-04-08T23:15:18.577Z,57.72
2023-04-08T23:17:46.334Z,59.22
2023-04-08T23:20:40.282Z,53.72
2023-04-08T23:23:08.256Z,64.32
2023-04-08T23:25:36.363Z,59.30
2023-04-08T23:28:28.253Z,58.00
2023-04-08T23:30:56.554Z,61.42
2023-04-08T23:33:24.205Z,62.67
2023-04-08T23:35:52.274Z,64.97
2023-04-08T23:38:20.437Z,58.38
2023-04-08T23:40:48.281Z,62.38
2023-04-08T23:43:40.274Z,63.72
2023-04-08T23:46:33.689Z,71.78
2023-04-08T23:49:02.329Z,65.60
2023-04-08T23:51:31.300Z,66.13
2023-04-08T23:53:58.224Z,62.78
2023-04-08T23:56:26.232Z,56.30
2023-04-08T23:58:54.495Z,65.95
